BLY19F EGCC-LOWS
Flight info
| Callsign | BLY19F |
|---|---|
| Flight time | 1h 46m |
| Altitude | 35000 |
| Route | DESIG L603 DOLAS DCT NAVPI DCT MAVAS DCT VELED DCT TORNU DCT UMUPU DCT TUSUK DCT ULNOK L607 ABUKA DCT TEDGO L607 XEBIX N871 BADVI L725 UNKEN UNKEN2R |
| Aircraft | A320/M-SDE3FGHIRWY/LB1 |
Departure
| Time | 2026-05-04 11:10 |
|---|---|
| Airport | Manchester Airport (EGCC) |
Arrival
| Time | 2026-05-04 12:56 |
|---|---|
| Airport | Salzburg Airport (LOWS) |
| Time | Latitude | Longitude | Altitude | Speed | Heading |
|---|---|---|---|---|---|
| 2026-05-04 10:26 | 53.36902 | -2.28538 | 255 ft | 0 kts | 315° |
| 2026-05-04 10:54 | 53.36872 | -2.28433 | 255 ft | 0 kts | 223° |
| 2026-05-04 10:57 | 53.36859 | -2.28454 | 255 ft | 11 kts | 223° |
| 2026-05-04 10:57 | 53.36795 | -2.28557 | 255 ft | 12 kts | 224° |
| 2026-05-04 10:57 | 53.36732 | -2.28663 | 255 ft | 14 kts | 225° |
| 2026-05-04 10:58 | 53.36659 | -2.28761 | 255 ft | 12 kts | 199° |
| 2026-05-04 10:58 | 53.36578 | -2.28757 | 255 ft | 13 kts | 141° |
| 2026-05-04 10:58 | 53.36509 | -2.28638 | 255 ft | 15 kts | 135° |
| 2026-05-04 10:58 | 53.36464 | -2.28561 | 255 ft | 0 kts | 134° |
| 2026-05-04 10:59 | 53.36462 | -2.28559 | 255 ft | 2 kts | 134° |
| 2026-05-04 10:59 | 53.36419 | -2.28479 | 255 ft | 12 kts | 128° |
| 2026-05-04 11:00 | 53.36400 | -2.28461 | 255 ft | 4 kts | 183° |
| 2026-05-04 11:01 | 53.35856 | -2.27857 | 253 ft | 17 kts | 186° |
| 2026-05-04 11:02 | 53.35748 | -2.27875 | 247 ft | 16 kts | 185° |
| 2026-05-04 11:02 | 53.35635 | -2.27900 | 241 ft | 14 kts | 202° |
| 2026-05-04 11:05 | 53.34683 | -2.29326 | 210 ft | 0 kts | 202° |
| 2026-05-04 11:06 | 53.34662 | -2.29337 | 211 ft | 8 kts | 195° |
| 2026-05-04 11:06 | 53.34609 | -2.29340 | 212 ft | 7 kts | 171° |
| 2026-05-04 11:06 | 53.34545 | -2.29277 | 213 ft | 14 kts | 119° |
| 2026-05-04 11:08 | 53.36384 | -2.25352 | 816 ft | 162 kts | 51° |
| 2026-05-04 11:10 | 53.42880 | -2.11644 | 4243 ft | 260 kts | 51° |
| 2026-05-04 11:12 | 53.51176 | -1.93930 | 9559 ft | 290 kts | 57° |
| 2026-05-04 11:12 | 53.52000 | -1.90824 | 10236 ft | 295 kts | 76° |
| 2026-05-04 11:12 | 53.52200 | -1.87286 | 10470 ft | 316 kts | 96° |
| 2026-05-04 11:12 | 53.51723 | -1.83524 | 10654 ft | 336 kts | 107° |
| 2026-05-04 11:13 | 53.50920 | -1.79672 | 11172 ft | 343 kts | 110° |
| 2026-05-04 11:13 | 53.50177 | -1.75835 | 11779 ft | 347 kts | 107° |
| 2026-05-04 11:13 | 53.49513 | -1.71917 | 12394 ft | 350 kts | 105° |
| 2026-05-04 11:13 | 53.48870 | -1.67948 | 13010 ft | 353 kts | 105° |
| 2026-05-04 11:14 | 53.48206 | -1.63897 | 13651 ft | 356 kts | 106° |
| 2026-05-04 11:14 | 53.47529 | -1.59874 | 14215 ft | 360 kts | 106° |
| 2026-05-04 11:14 | 53.46829 | -1.55832 | 14755 ft | 362 kts | 107° |
| 2026-05-04 11:16 | 53.41549 | -1.26628 | 18478 ft | 381 kts | 107° |
| 2026-05-04 11:16 | 53.40769 | -1.22304 | 18950 ft | 383 kts | 107° |
| 2026-05-04 11:16 | 53.39993 | -1.18022 | 19447 ft | 385 kts | 107° |
| 2026-05-04 11:17 | 53.39199 | -1.13661 | 19965 ft | 387 kts | 107° |
| 2026-05-04 11:17 | 53.38420 | -1.09403 | 20449 ft | 388 kts | 107° |
| 2026-05-04 11:19 | 53.32702 | -0.78410 | 23495 ft | 405 kts | 107° |
| 2026-05-04 11:19 | 53.31859 | -0.73908 | 23884 ft | 406 kts | 107° |
| 2026-05-04 11:19 | 53.31005 | -0.69351 | 24262 ft | 407 kts | 107° |
| 2026-05-04 11:19 | 53.30154 | -0.64819 | 24622 ft | 409 kts | 106° |
| 2026-05-04 11:20 | 53.29300 | -0.60264 | 24986 ft | 410 kts | 106° |
| 2026-05-04 11:20 | 53.28447 | -0.55717 | 25342 ft | 411 kts | 106° |
| 2026-05-04 11:20 | 53.27575 | -0.51084 | 25703 ft | 413 kts | 106° |
| 2026-05-04 11:20 | 53.26990 | -0.47987 | 25947 ft | 414 kts | 106° |
| 2026-05-04 11:22 | 53.20798 | -0.15540 | 28447 ft | 423 kts | 106° |
| 2026-05-04 11:22 | 53.19895 | -0.10862 | 28794 ft | 424 kts | 106° |
| 2026-05-04 11:23 | 53.18991 | -0.06180 | 29193 ft | 424 kts | 106° |
| 2026-05-04 11:23 | 53.18087 | -0.01523 | 29704 ft | 422 kts | 106° |
| 2026-05-04 11:24 | 53.12633 | 0.26423 | 31914 ft | 422 kts | 107° |
| 2026-05-04 11:25 | 53.11718 | 0.31060 | 32283 ft | 422 kts | 107° |
| 2026-05-04 11:25 | 53.10803 | 0.35690 | 32651 ft | 422 kts | 107° |
| 2026-05-04 11:25 | 53.09886 | 0.40321 | 33008 ft | 421 kts | 107° |
| 2026-05-04 11:26 | 53.08042 | 0.49634 | 33737 ft | 421 kts | 107° |
| 2026-05-04 11:27 | 53.01478 | 0.82302 | 35064 ft | 434 kts | 108° |
| 2026-05-04 11:28 | 52.99535 | 0.91872 | 35059 ft | 439 kts | 109° |
| 2026-05-04 11:28 | 52.97563 | 1.01495 | 35054 ft | 441 kts | 110° |
| 2026-05-04 11:29 | 52.95454 | 1.11086 | 35061 ft | 444 kts | 112° |
| 2026-05-04 11:29 | 52.93247 | 1.20638 | 35061 ft | 444 kts | 112° |
| 2026-05-04 11:33 | 52.77803 | 1.87558 | 35039 ft | 445 kts | 112° |
| 2026-05-04 11:33 | 52.75562 | 1.97105 | 35043 ft | 446 kts | 112° |
| 2026-05-04 11:34 | 52.73295 | 2.06754 | 35035 ft | 458 kts | 114° |
| 2026-05-04 11:34 | 52.70948 | 2.16677 | 35037 ft | 470 kts | 114° |
| 2026-05-04 11:35 | 52.68558 | 2.26748 | 35038 ft | 472 kts | 114° |
| 2026-05-04 11:35 | 52.66145 | 2.36820 | 35038 ft | 473 kts | 114° |
| 2026-05-04 11:36 | 52.63713 | 2.46949 | 35025 ft | 473 kts | 114° |
| 2026-05-04 11:36 | 52.61291 | 2.57008 | 35016 ft | 473 kts | 115° |
| 2026-05-04 11:37 | 52.58849 | 2.67070 | 35016 ft | 474 kts | 115° |
| 2026-05-04 11:37 | 52.56392 | 2.77115 | 35024 ft | 474 kts | 115° |
| 2026-05-04 11:38 | 52.53480 | 2.86747 | 35016 ft | 468 kts | 129° |
| 2026-05-04 11:38 | 52.49611 | 2.95309 | 35024 ft | 467 kts | 130° |
| 2026-05-04 11:39 | 52.45716 | 3.03841 | 34993 ft | 468 kts | 131° |
| 2026-05-04 11:41 | 52.32166 | 3.34064 | 35013 ft | 472 kts | 130° |
| 2026-05-04 11:41 | 52.28341 | 3.42782 | 35017 ft | 472 kts | 130° |
| 2026-05-04 11:42 | 52.24484 | 3.51464 | 35009 ft | 472 kts | 131° |
| 2026-05-04 11:42 | 52.20624 | 3.60113 | 35009 ft | 471 kts | 131° |
| 2026-05-04 11:43 | 52.16767 | 3.68741 | 35020 ft | 471 kts | 131° |
| 2026-05-04 11:43 | 52.12912 | 3.77338 | 35024 ft | 470 kts | 131° |
| 2026-05-04 11:44 | 52.09023 | 3.85974 | 35023 ft | 470 kts | 131° |
| 2026-05-04 11:44 | 52.05157 | 3.94525 | 34995 ft | 469 kts | 131° |
| 2026-05-04 11:45 | 52.01290 | 4.03051 | 34996 ft | 469 kts | 132° |
| 2026-05-04 11:45 | 51.97410 | 4.11564 | 34988 ft | 469 kts | 132° |
| 2026-05-04 11:46 | 51.93532 | 4.20068 | 35008 ft | 468 kts | 132° |
| 2026-05-04 11:46 | 51.89664 | 4.28522 | 35016 ft | 467 kts | 132° |
| 2026-05-04 11:47 | 51.85789 | 4.36956 | 35024 ft | 467 kts | 132° |
| 2026-05-04 11:47 | 51.81909 | 4.45374 | 35013 ft | 466 kts | 132° |
| 2026-05-04 11:48 | 51.78038 | 4.53749 | 35008 ft | 465 kts | 132° |
| 2026-05-04 11:48 | 51.74156 | 4.62118 | 35005 ft | 466 kts | 133° |
| 2026-05-04 11:49 | 51.70270 | 4.70471 | 35000 ft | 465 kts | 133° |
| 2026-05-04 11:49 | 51.66357 | 4.78853 | 35013 ft | 465 kts | 133° |
| 2026-05-04 11:50 | 51.63125 | 4.85755 | 35000 ft | 464 kts | 133° |
| 2026-05-04 11:50 | 51.59226 | 4.94049 | 34997 ft | 465 kts | 133° |
| 2026-05-04 11:51 | 51.55318 | 5.02342 | 34997 ft | 465 kts | 133° |
| 2026-05-04 11:51 | 51.51385 | 5.10678 | 34996 ft | 465 kts | 133° |
| 2026-05-04 11:52 | 51.47461 | 5.18952 | 35000 ft | 466 kts | 133° |
| 2026-05-04 11:52 | 51.43531 | 5.27219 | 34991 ft | 465 kts | 133° |
| 2026-05-04 11:53 | 51.39600 | 5.35440 | 34986 ft | 465 kts | 133° |
| 2026-05-04 11:53 | 51.35748 | 5.43768 | 34992 ft | 467 kts | 131° |
| 2026-05-04 11:55 | 51.20817 | 5.77787 | 34981 ft | 467 kts | 131° |
| 2026-05-04 11:56 | 51.17075 | 5.86268 | 34979 ft | 469 kts | 129° |
| 2026-05-04 11:56 | 51.13620 | 5.95212 | 34998 ft | 472 kts | 126° |
| 2026-05-04 11:57 | 51.10329 | 6.04244 | 35006 ft | 471 kts | 126° |
| 2026-05-04 11:57 | 51.06984 | 6.13194 | 35009 ft | 470 kts | 127° |
| 2026-05-04 11:58 | 51.03574 | 6.22057 | 34996 ft | 470 kts | 128° |
| 2026-05-04 11:58 | 51.00166 | 6.30831 | 34991 ft | 470 kts | 128° |
| 2026-05-04 11:59 | 50.96711 | 6.39730 | 34994 ft | 470 kts | 128° |
| 2026-05-04 11:59 | 50.93285 | 6.48576 | 34988 ft | 471 kts | 128° |
| 2026-05-04 12:00 | 50.89855 | 6.57404 | 34998 ft | 470 kts | 128° |
| 2026-05-04 12:00 | 50.86417 | 6.66219 | 34975 ft | 471 kts | 128° |
| 2026-05-04 12:01 | 50.82957 | 6.75048 | 34989 ft | 472 kts | 128° |
| 2026-05-04 12:02 | 50.70743 | 7.05960 | 34976 ft | 474 kts | 128° |
| 2026-05-04 12:03 | 50.67238 | 7.14762 | 34980 ft | 474 kts | 128° |
| 2026-05-04 12:03 | 50.63718 | 7.23568 | 34995 ft | 474 kts | 128° |
| 2026-05-04 12:04 | 50.60198 | 7.32346 | 35004 ft | 474 kts | 128° |
| 2026-05-04 12:04 | 50.56669 | 7.41096 | 35007 ft | 473 kts | 129° |
| 2026-05-04 12:05 | 50.52527 | 7.48925 | 34984 ft | 465 kts | 138° |
| 2026-05-04 12:05 | 50.48170 | 7.56440 | 34983 ft | 465 kts | 138° |
| 2026-05-04 12:06 | 50.43801 | 7.63942 | 34988 ft | 466 kts | 138° |
| 2026-05-04 12:06 | 50.39428 | 7.71448 | 34991 ft | 466 kts | 138° |
| 2026-05-04 12:07 | 50.35048 | 7.78943 | 34993 ft | 466 kts | 138° |
| 2026-05-04 12:07 | 50.30633 | 7.86481 | 34982 ft | 466 kts | 138° |
| 2026-05-04 12:08 | 50.26244 | 7.93948 | 34981 ft | 467 kts | 138° |
| 2026-05-04 12:08 | 50.21835 | 8.01425 | 34986 ft | 468 kts | 138° |
| 2026-05-04 12:09 | 50.17419 | 8.08885 | 34989 ft | 469 kts | 138° |
| 2026-05-04 12:09 | 50.12788 | 8.15947 | 34977 ft | 460 kts | 149° |
| 2026-05-04 12:10 | 50.07398 | 8.21129 | 34993 ft | 455 kts | 155° |
| 2026-05-04 12:10 | 50.01950 | 8.26154 | 34984 ft | 455 kts | 154° |
| 2026-05-04 12:11 | 49.96516 | 8.31175 | 34987 ft | 455 kts | 154° |
| 2026-05-04 12:11 | 49.91038 | 8.36230 | 34998 ft | 455 kts | 154° |
| 2026-05-04 12:12 | 49.85607 | 8.41296 | 34994 ft | 457 kts | 150° |
| 2026-05-04 12:12 | 49.80789 | 8.47853 | 35003 ft | 463 kts | 142° |
| 2026-05-04 12:14 | 49.58932 | 8.64463 | 34986 ft | 440 kts | 174° |
| 2026-05-04 12:15 | 49.52908 | 8.66143 | 34989 ft | 440 kts | 174° |
| 2026-05-04 12:15 | 49.46892 | 8.67962 | 34992 ft | 444 kts | 168° |
| 2026-05-04 12:16 | 49.41142 | 8.71646 | 35000 ft | 449 kts | 160° |
| 2026-05-04 12:16 | 49.35446 | 8.75627 | 35006 ft | 450 kts | 160° |
| 2026-05-04 12:17 | 49.29746 | 8.79587 | 35000 ft | 450 kts | 160° |
| 2026-05-04 12:17 | 49.24033 | 8.83523 | 35014 ft | 450 kts | 160° |
| 2026-05-04 12:18 | 49.18317 | 8.87460 | 34992 ft | 451 kts | 160° |
| 2026-05-04 12:18 | 49.12557 | 8.91434 | 34988 ft | 452 kts | 160° |
| 2026-05-04 12:19 | 49.07790 | 8.94715 | 34992 ft | 452 kts | 160° |
| 2026-05-04 12:19 | 49.02055 | 8.98652 | 35003 ft | 452 kts | 160° |
| 2026-05-04 12:20 | 48.96307 | 9.02572 | 34994 ft | 452 kts | 160° |
| 2026-05-04 12:20 | 48.90560 | 9.06480 | 34997 ft | 453 kts | 160° |
| 2026-05-04 12:21 | 48.84810 | 9.10394 | 35008 ft | 453 kts | 160° |
| 2026-05-04 12:21 | 48.79074 | 9.14293 | 35002 ft | 452 kts | 160° |
| 2026-05-04 12:22 | 48.73330 | 9.18175 | 34992 ft | 452 kts | 160° |
| 2026-05-04 12:22 | 48.67584 | 9.22043 | 34980 ft | 452 kts | 160° |
| 2026-05-04 12:23 | 48.61829 | 9.25914 | 34979 ft | 453 kts | 161° |
| 2026-05-04 12:23 | 48.55986 | 9.29444 | 34985 ft | 451 kts | 164° |
| 2026-05-04 12:24 | 48.50030 | 9.32647 | 34982 ft | 451 kts | 165° |
| 2026-05-04 12:24 | 48.44115 | 9.35814 | 34985 ft | 451 kts | 164° |
| 2026-05-04 12:25 | 48.38212 | 9.39077 | 34986 ft | 452 kts | 163° |
| 2026-05-04 12:25 | 48.32324 | 9.42386 | 34985 ft | 452 kts | 163° |
| 2026-05-04 12:26 | 48.26478 | 9.45881 | 34988 ft | 456 kts | 156° |
| 2026-05-04 12:26 | 48.21323 | 9.51566 | 34974 ft | 463 kts | 143° |
| 2026-05-04 12:27 | 48.16453 | 9.57906 | 34979 ft | 464 kts | 143° |
| 2026-05-04 12:27 | 48.11571 | 9.64227 | 34986 ft | 464 kts | 143° |
| 2026-05-04 12:28 | 48.06669 | 9.70531 | 34992 ft | 465 kts | 143° |
| 2026-05-04 12:28 | 48.01765 | 9.76821 | 34992 ft | 465 kts | 143° |
| 2026-05-04 12:29 | 47.96854 | 9.83106 | 34994 ft | 465 kts | 143° |
| 2026-05-04 12:29 | 47.91913 | 9.89419 | 34999 ft | 464 kts | 143° |
| 2026-05-04 12:30 | 47.87013 | 9.95670 | 35002 ft | 463 kts | 143° |
| 2026-05-04 12:30 | 47.82083 | 10.01848 | 35004 ft | 462 kts | 145° |
| 2026-05-04 12:31 | 47.76959 | 10.07602 | 34991 ft | 461 kts | 147° |
| 2026-05-04 12:31 | 47.71760 | 10.13161 | 34995 ft | 461 kts | 147° |
| 2026-05-04 12:32 | 47.64000 | 10.21629 | 34712 ft | 463 kts | 146° |
| 2026-05-04 12:32 | 47.61448 | 10.24462 | 34449 ft | 454 kts | 146° |
| 2026-05-04 12:33 | 47.58944 | 10.27242 | 34220 ft | 445 kts | 147° |
| 2026-05-04 12:33 | 47.56492 | 10.29956 | 33974 ft | 436 kts | 147° |
| 2026-05-04 12:33 | 47.54080 | 10.32614 | 33679 ft | 428 kts | 147° |
| 2026-05-04 12:33 | 47.51712 | 10.35212 | 33415 ft | 421 kts | 147° |
| 2026-05-04 12:34 | 47.49366 | 10.37777 | 33152 ft | 417 kts | 147° |
| 2026-05-04 12:34 | 47.47048 | 10.40316 | 32891 ft | 414 kts | 145° |
| 2026-05-04 12:34 | 47.44978 | 10.43285 | 32621 ft | 417 kts | 131° |
| 2026-05-04 12:34 | 47.43433 | 10.46925 | 32350 ft | 421 kts | 117° |
| 2026-05-04 12:35 | 47.42537 | 10.51049 | 32082 ft | 424 kts | 102° |
| 2026-05-04 12:35 | 47.42352 | 10.55397 | 31817 ft | 427 kts | 87° |
| 2026-05-04 12:35 | 47.42896 | 10.59710 | 31563 ft | 429 kts | 73° |
| 2026-05-04 12:35 | 47.43900 | 10.63858 | 31308 ft | 428 kts | 71° |
| 2026-05-04 12:36 | 47.44915 | 10.67988 | 31060 ft | 427 kts | 71° |
| 2026-05-04 12:36 | 47.45930 | 10.72129 | 30796 ft | 426 kts | 71° |
| 2026-05-04 12:36 | 47.46942 | 10.76271 | 30541 ft | 424 kts | 72° |
| 2026-05-04 12:36 | 47.47935 | 10.80350 | 30301 ft | 420 kts | 72° |
| 2026-05-04 12:37 | 47.48916 | 10.84395 | 29869 ft | 418 kts | 72° |
| 2026-05-04 12:37 | 47.49894 | 10.88438 | 29441 ft | 414 kts | 72° |
| 2026-05-04 12:37 | 47.50858 | 10.92435 | 29015 ft | 411 kts | 71° |
| 2026-05-04 12:37 | 47.51813 | 10.96404 | 28605 ft | 408 kts | 71° |
| 2026-05-04 12:38 | 47.52762 | 11.00355 | 28202 ft | 405 kts | 71° |
| 2026-05-04 12:38 | 47.53700 | 11.04268 | 27811 ft | 403 kts | 71° |
| 2026-05-04 12:38 | 47.54635 | 11.08166 | 27418 ft | 400 kts | 71° |
| 2026-05-04 12:38 | 47.55563 | 11.12028 | 27022 ft | 396 kts | 71° |
| 2026-05-04 12:39 | 47.56481 | 11.15852 | 26636 ft | 394 kts | 71° |
| 2026-05-04 12:39 | 47.57395 | 11.19663 | 26248 ft | 391 kts | 71° |
| 2026-05-04 12:39 | 47.58303 | 11.23456 | 25867 ft | 389 kts | 71° |
| 2026-05-04 12:39 | 47.59203 | 11.27225 | 25468 ft | 388 kts | 72° |
| 2026-05-04 12:40 | 47.60099 | 11.30993 | 25060 ft | 387 kts | 72° |
| 2026-05-04 12:40 | 47.60987 | 11.34746 | 24655 ft | 385 kts | 72° |
| 2026-05-04 12:40 | 47.61874 | 11.38488 | 24233 ft | 384 kts | 71° |
| 2026-05-04 12:40 | 47.62752 | 11.42277 | 23820 ft | 383 kts | 73° |
| 2026-05-04 12:41 | 47.63545 | 11.45981 | 23392 ft | 381 kts | 74° |
| 2026-05-04 12:41 | 47.64314 | 11.49789 | 22936 ft | 379 kts | 75° |
| 2026-05-04 12:41 | 47.65052 | 11.53529 | 22513 ft | 377 kts | 75° |
| 2026-05-04 12:41 | 47.65785 | 11.57240 | 22091 ft | 374 kts | 75° |
| 2026-05-04 12:42 | 47.66522 | 11.60932 | 21669 ft | 372 kts | 75° |
| 2026-05-04 12:42 | 47.67261 | 11.64602 | 21249 ft | 370 kts | 75° |
| 2026-05-04 12:42 | 47.68001 | 11.68249 | 20832 ft | 369 kts | 75° |
| 2026-05-04 12:42 | 47.68739 | 11.71881 | 20413 ft | 367 kts | 75° |
| 2026-05-04 12:43 | 47.69475 | 11.75496 | 19993 ft | 365 kts | 75° |
| 2026-05-04 12:43 | 47.70208 | 11.79099 | 19579 ft | 364 kts | 75° |
| 2026-05-04 12:43 | 47.70919 | 11.82689 | 19169 ft | 362 kts | 76° |
| 2026-05-04 12:43 | 47.71597 | 11.86275 | 18753 ft | 360 kts | 77° |
| 2026-05-04 12:44 | 47.72257 | 11.89854 | 18339 ft | 358 kts | 77° |
| 2026-05-04 12:44 | 47.72912 | 11.93419 | 17888 ft | 357 kts | 77° |
| 2026-05-04 12:44 | 47.73526 | 11.96976 | 17476 ft | 354 kts | 79° |
| 2026-05-04 12:44 | 47.74059 | 12.00558 | 17064 ft | 351 kts | 81° |
| 2026-05-04 12:45 | 47.74542 | 12.04102 | 16660 ft | 348 kts | 81° |
| 2026-05-04 12:45 | 47.75007 | 12.07618 | 16262 ft | 345 kts | 81° |
| 2026-05-04 12:45 | 47.75469 | 12.11109 | 15861 ft | 344 kts | 81° |
| 2026-05-04 12:45 | 47.75937 | 12.14587 | 15464 ft | 343 kts | 81° |
| 2026-05-04 12:46 | 47.76410 | 12.18060 | 15066 ft | 343 kts | 81° |
| 2026-05-04 12:46 | 47.76889 | 12.21535 | 14666 ft | 343 kts | 81° |
| 2026-05-04 12:46 | 47.77369 | 12.24999 | 14267 ft | 342 kts | 81° |
| 2026-05-04 12:46 | 47.77849 | 12.28458 | 13881 ft | 342 kts | 81° |
| 2026-05-04 12:47 | 47.78328 | 12.31912 | 13445 ft | 340 kts | 81° |
| 2026-05-04 12:47 | 47.78803 | 12.35346 | 13043 ft | 339 kts | 81° |
| 2026-05-04 12:47 | 47.79275 | 12.38770 | 12643 ft | 336 kts | 81° |
| 2026-05-04 12:47 | 47.79741 | 12.42169 | 12257 ft | 334 kts | 81° |
| 2026-05-04 12:48 | 47.80200 | 12.45546 | 11858 ft | 333 kts | 81° |
| 2026-05-04 12:48 | 47.80653 | 12.48918 | 11471 ft | 332 kts | 81° |
| 2026-05-04 12:48 | 47.81110 | 12.52327 | 11067 ft | 331 kts | 81° |
| 2026-05-04 12:48 | 47.81560 | 12.55678 | 10680 ft | 330 kts | 81° |
| 2026-05-04 12:49 | 47.82170 | 12.58928 | 10505 ft | 324 kts | 69° |
| 2026-05-04 12:49 | 47.83255 | 12.61789 | 10192 ft | 314 kts | 54° |
| 2026-05-04 12:49 | 47.84697 | 12.64207 | 9641 ft | 311 kts | 48° |
| 2026-05-04 12:49 | 47.86156 | 12.66531 | 9204 ft | 305 kts | 48° |
| 2026-05-04 12:50 | 47.87111 | 12.68054 | 8961 ft | 303 kts | 48° |
| 2026-05-04 12:50 | 47.88543 | 12.70342 | 8431 ft | 299 kts | 48° |
| 2026-05-04 12:50 | 47.89971 | 12.72634 | 7904 ft | 295 kts | 48° |
| 2026-05-04 12:50 | 47.91304 | 12.74782 | 7767 ft | 278 kts | 48° |
| 2026-05-04 12:51 | 47.92573 | 12.76828 | 7644 ft | 261 kts | 48° |
| 2026-05-04 12:51 | 47.93781 | 12.78775 | 7512 ft | 244 kts | 49° |
| 2026-05-04 12:51 | 47.94895 | 12.80573 | 7404 ft | 227 kts | 48° |
| 2026-05-04 12:51 | 47.95928 | 12.82243 | 7192 ft | 211 kts | 48° |
| 2026-05-04 12:52 | 47.96752 | 12.84011 | 6680 ft | 207 kts | 70° |
| 2026-05-04 12:52 | 47.97025 | 12.86138 | 5941 ft | 216 kts | 95° |
| 2026-05-04 12:52 | 47.96610 | 12.88341 | 5171 ft | 228 kts | 122° |
| 2026-05-04 12:52 | 47.95510 | 12.90050 | 4660 ft | 231 kts | 148° |
| 2026-05-04 12:53 | 47.94069 | 12.91044 | 4310 ft | 227 kts | 156° |
| 2026-05-04 12:53 | 47.92634 | 12.91956 | 4008 ft | 222 kts | 155° |
| 2026-05-04 12:53 | 47.91225 | 12.92853 | 3721 ft | 218 kts | 155° |
| 2026-05-04 12:53 | 47.89839 | 12.93734 | 3438 ft | 216 kts | 154° |
| 2026-05-04 12:54 | 47.88491 | 12.94588 | 3184 ft | 202 kts | 154° |
| 2026-05-04 12:54 | 47.87257 | 12.95370 | 2938 ft | 182 kts | 153° |
| 2026-05-04 12:54 | 47.86153 | 12.96069 | 2685 ft | 164 kts | 155° |
| 2026-05-04 12:54 | 47.85134 | 12.96718 | 2480 ft | 156 kts | 154° |
| 2026-05-04 12:55 | 47.84147 | 12.97345 | 2278 ft | 154 kts | 154° |
| 2026-05-04 12:55 | 47.83166 | 12.97967 | 2073 ft | 153 kts | 155° |
| 2026-05-04 12:55 | 47.82187 | 12.98588 | 1867 ft | 152 kts | 154° |
| 2026-05-04 12:55 | 47.81222 | 12.99197 | 1651 ft | 150 kts | 155° |
| 2026-05-04 12:56 | 47.80254 | 12.99809 | 1442 ft | 151 kts | 155° |
| 2026-05-04 12:56 | 47.79391 | 13.00365 | 1425 ft | 85 kts | 156° |
| 2026-05-04 12:56 | 47.79153 | 13.00496 | 1422 ft | 19 kts | 191° |
| 2026-05-04 12:56 | 47.79123 | 13.00380 | 1422 ft | 1 kts | 277° |
| 2026-05-04 12:57 | 47.79116 | 13.00320 | 1423 ft | 12 kts | 244° |
| 2026-05-04 12:57 | 47.79040 | 13.00314 | 1421 ft | 13 kts | 160° |
| 2026-05-04 12:57 | 47.78964 | 13.00313 | 1422 ft | 10 kts | 242° |
| 2026-05-04 12:57 | 47.78957 | 13.00204 | 1422 ft | 12 kts | 270° |
| 2026-05-04 12:58 | 47.78968 | 13.00068 | 1422 ft | 14 kts | 282° |
| 2026-05-04 12:58 | 47.78972 | 13.00042 | 1422 ft | 0 kts | 283° |